Liberty Center, Iowa
Current Conditions -  °F | °C
As of 3:35 PM on Monday 24 Nov 2014 (Local Time) from KI75 Reporting Station
Overcast Overcast  
Wind Chill: 16°   Ceiling: 2300
Heat Index: 29°   Visibility: 10mi
Dew Point: 22°   Wind: 20mph
Humidity: 74%   Direction: 280°W
Pressure: 29.76"   Gusts: 26mph
Location:  41.2°N, 93.5°W
Report Text: KI75 242135Z AUTO 28017G23KT 10SM OVC023 M02/M06 A2976 RMK AO2 T10171057
Loading
Personal Weather Stations






























Interactive Weather Map New forecast layout! Learn more

10-Day Weather Forecast

Advertisements
Track Severe Weather on mobile